createdAt,value
2022-10-06T00:04:36.612Z,50.04
2022-10-06T00:09:38.830Z,49.88
2022-10-06T00:14:41.145Z,49.71
2022-10-06T00:19:43.484Z,49.74
2022-10-06T00:24:46.279Z,49.73
2022-10-06T00:29:48.652Z,49.85
2022-10-06T00:34:53.047Z,50.11
2022-10-06T00:39:55.944Z,50.10
2022-10-06T00:45:03.303Z,49.90
2022-10-06T00:50:06.503Z,50.35
2022-10-06T00:55:12.188Z,50.64
2022-10-06T01:00:15.016Z,51.13
2022-10-06T01:05:24.448Z,50.75
2022-10-06T01:10:26.683Z,50.87
2022-10-06T01:15:29.353Z,50.45
2022-10-06T01:20:32.498Z,50.77
2022-10-06T01:25:35.290Z,51.31
2022-10-06T01:30:44.112Z,51.63
2022-10-06T01:35:49.518Z,51.63
2022-10-06T01:40:54.055Z,51.94
2022-10-06T01:45:58.333Z,51.58
2022-10-06T01:51:01.192Z,51.83
2022-10-06T01:56:03.399Z,52.07
2022-10-06T02:01:10.110Z,52.37
2022-10-06T02:06:12.488Z,52.09
2022-10-06T02:11:14.746Z,52.13
2022-10-06T02:16:17.004Z,52.15
2022-10-06T02:21:21.997Z,52.07
2022-10-06T02:26:24.870Z,52.33
2022-10-06T02:31:27.173Z,51.84
2022-10-06T02:36:29.820Z,51.78
2022-10-06T02:41:33.069Z,51.66
2022-10-06T02:46:35.328Z,51.70
2022-10-06T02:51:37.836Z,51.36
2022-10-06T02:56:40.197Z,51.37
2022-10-06T03:01:42.556Z,51.37
2022-10-06T03:06:44.979Z,51.26
2022-10-06T03:11:47.650Z,51.36
2022-10-06T03:16:52.168Z,51.49
2022-10-06T03:21:54.418Z,51.42
2022-10-06T03:26:56.833Z,51.40
2022-10-06T03:31:59.557Z,51.64
2022-10-06T03:37:01.781Z,51.50
2022-10-06T03:42:04.087Z,51.42
2022-10-06T03:47:06.344Z,51.36
2022-10-06T03:52:08.992Z,51.63
2022-10-06T03:57:11.209Z,52.02
2022-10-06T04:02:13.602Z,51.48
2022-10-06T04:07:15.952Z,51.22
2022-10-06T04:12:18.377Z,51.35
2022-10-06T04:17:20.698Z,51.14
2022-10-06T04:22:22.961Z,51.04
2022-10-06T04:27:27.969Z,51.09
2022-10-06T04:32:30.252Z,51.07
2022-10-06T04:37:32.555Z,51.28
2022-10-06T04:42:35.456Z,51.28
2022-10-06T04:47:37.860Z,51.38
2022-10-06T04:52:40.065Z,51.70
2022-10-06T04:57:42.419Z,52.04
2022-10-06T05:02:44.757Z,51.80
2022-10-06T05:07:47.231Z,51.70
2022-10-06T05:12:49.444Z,51.36
2022-10-06T05:17:51.854Z,50.89
2022-10-06T05:22:54.039Z,50.44
2022-10-06T05:27:56.504Z,50.62
2022-10-06T05:32:58.754Z,51.14
2022-10-06T05:38:00.974Z,50.94
2022-10-06T05:43:03.354Z,50.94
2022-10-06T05:48:05.746Z,51.02
2022-10-06T05:53:08.336Z,51.12
2022-10-06T05:58:11.309Z,51.10
2022-10-06T06:03:14.871Z,50.57
2022-10-06T06:08:17.108Z,50.44
2022-10-06T06:13:25.479Z,49.71
2022-10-06T06:18:35.158Z,49.54
2022-10-06T06:23:43.047Z,49.08
2022-10-06T06:28:49.128Z,49.24
2022-10-06T06:33:53.235Z,48.15
2022-10-06T06:38:57.478Z,47.58
2022-10-06T06:44:02.650Z,47.16
2022-10-06T06:49:06.452Z,46.58
2022-10-06T06:54:10.491Z,46.29
2022-10-06T06:59:14.074Z,46.04
2022-10-06T07:04:17.502Z,45.51
2022-10-06T07:09:21.215Z,45.09
2022-10-06T07:14:33.993Z,44.94
2022-10-06T07:19:51.769Z,44.43
2022-10-06T07:25:08.169Z,44.54
2022-10-06T07:30:22.122Z,44.16
2022-10-06T07:35:25.835Z,44.04
2022-10-06T07:40:28.452Z,44.06
2022-10-06T07:45:41.969Z,43.81
2022-10-06T07:50:49.600Z,43.83
2022-10-06T07:55:52.583Z,43.43
2022-10-06T08:00:54.805Z,43.22
2022-10-06T08:06:02.539Z,43.18
2022-10-06T08:11:06.857Z,43.12
2022-10-06T08:16:18.803Z,43.03
2022-10-06T08:21:42.349Z,42.69
2022-10-06T08:26:44.676Z,42.45
2022-10-06T08:31:47.171Z,42.24
2022-10-06T08:37:08.644Z,41.84
2022-10-06T08:42:18.946Z,41.58
2022-10-06T08:47:23.823Z,41.20
2022-10-06T08:52:47.437Z,40.91
2022-10-06T08:58:08.040Z,40.83
2022-10-06T09:03:24.310Z,40.48
2022-10-06T09:08:42.590Z,39.81
2022-10-06T09:13:54.156Z,39.87
2022-10-06T09:19:09.652Z,39.64
2022-10-06T09:24:18.185Z,39.40
2022-10-06T09:29:20.711Z,38.94
2022-10-06T09:34:31.272Z,38.38
2022-10-06T09:39:38.956Z,38.03
2022-10-06T09:44:49.377Z,37.64
2022-10-06T09:50:12.793Z,37.84
2022-10-06T09:55:18.371Z,37.24
2022-10-06T10:00:36.988Z,36.79
2022-10-06T10:05:47.061Z,36.70
2022-10-06T10:10:51.295Z,36.40
2022-10-06T10:15:59.381Z,35.66
2022-10-06T10:21:08.904Z,34.91
2022-10-06T10:26:14.957Z,35.18
2022-10-06T10:31:45.284Z,35.19
2022-10-06T10:37:03.828Z,35.12
2022-10-06T10:42:25.374Z,34.82
2022-10-06T10:47:38.238Z,34.40
2022-10-06T10:52:43.835Z,34.35
2022-10-06T10:57:48.356Z,33.99
2022-10-06T11:02:55.350Z,34.03
2022-10-06T11:08:11.778Z,33.86
2022-10-06T11:13:29.507Z,33.29
2022-10-06T11:18:57.755Z,33.69
2022-10-06T11:24:43.132Z,33.63
2022-10-06T11:29:50.943Z,32.97
2022-10-06T11:34:53.830Z,32.72
2022-10-06T11:40:21.098Z,33.03
2022-10-06T11:45:36.083Z,32.49
2022-10-06T11:50:43.102Z,32.18
2022-10-06T11:55:45.460Z,32.01
2022-10-06T12:00:50.196Z,32.11
2022-10-06T12:05:57.081Z,31.79
2022-10-06T12:10:59.729Z,31.56
2022-10-06T12:22:17.474Z,31.93
2022-10-06T12:27:54.789Z,31.96
2022-10-06T12:32:59.350Z,31.98
2022-10-06T12:38:06.574Z,31.70
2022-10-06T12:43:14.874Z,31.79
2022-10-06T12:48:35.573Z,32.08
2022-10-06T12:53:46.247Z,31.60
2022-10-06T12:58:48.615Z,31.47
2022-10-06T13:03:53.473Z,31.68
2022-10-06T13:09:15.316Z,31.66
2022-10-06T13:14:17.651Z,31.57
2022-10-06T13:19:27.202Z,31.62
2022-10-06T13:24:29.542Z,31.60
2022-10-06T13:29:32.399Z,31.67
2022-10-06T13:34:36.499Z,31.44
2022-10-06T13:39:39.373Z,31.64
2022-10-06T13:44:48.600Z,31.87
2022-10-06T13:49:58.035Z,31.52
2022-10-06T13:55:02.136Z,31.11
2022-10-06T14:00:15.669Z,31.04
2022-10-06T14:05:36.792Z,30.96
2022-10-06T14:10:42.823Z,30.90
2022-10-06T14:15:53.434Z,31.05
2022-10-06T14:20:57.579Z,31.19
2022-10-06T14:26:00.294Z,30.83
2022-10-06T14:31:02.583Z,30.64
2022-10-06T14:36:05.593Z,30.31
2022-10-06T14:41:08.210Z,30.58
2022-10-06T14:46:11.875Z,29.87
2022-10-06T14:51:14.409Z,29.70
2022-10-06T14:56:17.043Z,29.07
2022-10-06T15:01:23.711Z,28.42
2022-10-06T15:06:45.049Z,28.02
2022-10-06T15:11:47.375Z,28.00
2022-10-06T15:16:50.286Z,28.31
2022-10-06T15:21:52.468Z,28.77
2022-10-06T15:27:13.245Z,29.11
2022-10-06T15:32:16.063Z,29.13
2022-10-06T15:37:20.480Z,29.10
2022-10-06T15:42:24.601Z,29.60
2022-10-06T15:47:27.390Z,29.64
2022-10-06T15:52:34.466Z,30.04
2022-10-06T15:57:37.913Z,30.02
2022-10-06T16:02:40.635Z,29.93
2022-10-06T16:07:42.946Z,29.97
2022-10-06T16:12:45.665Z,29.64
2022-10-06T16:17:48.091Z,29.96
2022-10-06T16:22:50.279Z,30.17
2022-10-06T16:27:52.493Z,30.30
2022-10-06T16:32:54.754Z,30.33
2022-10-06T16:37:57.053Z,30.73
2022-10-06T16:42:59.899Z,30.82
2022-10-06T16:48:02.114Z,31.04
2022-10-06T16:53:04.453Z,31.80
2022-10-06T16:58:06.665Z,31.88
2022-10-06T17:03:09.083Z,32.33
2022-10-06T17:08:11.370Z,32.76
2022-10-06T17:13:13.713Z,32.86
2022-10-06T17:18:16.007Z,33.21
2022-10-06T17:23:18.490Z,33.27
2022-10-06T17:28:20.939Z,33.29
2022-10-06T17:33:23.439Z,33.43
2022-10-06T17:38:28.221Z,33.44
2022-10-06T17:43:31.514Z,33.64
2022-10-06T17:48:34.146Z,33.80
2022-10-06T17:53:41.166Z,34.05
2022-10-06T17:58:46.608Z,34.11
2022-10-06T18:03:49.527Z,34.23
2022-10-06T18:08:51.889Z,34.37
2022-10-06T18:13:55.197Z,34.62
2022-10-06T18:19:03.280Z,34.97
2022-10-06T18:24:14.558Z,35.34
2022-10-06T18:29:18.650Z,35.46
2022-10-06T18:39:43.181Z,35.86
2022-10-06T18:45:03.771Z,35.89
2022-10-06T18:50:06.536Z,36.29
2022-10-06T18:55:09.198Z,36.56
2022-10-06T19:00:11.840Z,36.70
2022-10-06T19:05:14.419Z,37.21
2022-10-06T19:10:16.679Z,37.24
2022-10-06T19:15:21.052Z,37.33
2022-10-06T19:20:23.955Z,37.59
2022-10-06T19:25:27.469Z,37.81
2022-10-06T19:30:30.598Z,37.75
2022-10-06T19:35:33.391Z,37.70
2022-10-06T19:40:37.124Z,37.98
2022-10-06T19:45:39.857Z,38.25
2022-10-06T19:50:42.263Z,38.14
2022-10-06T19:55:44.563Z,38.35
2022-10-06T20:00:47.454Z,38.62
2022-10-06T20:05:49.851Z,38.62
2022-10-06T20:11:02.206Z,38.91
2022-10-06T20:16:09.055Z,39.10
2022-10-06T20:21:25.272Z,39.37
2022-10-06T20:26:39.819Z,39.47
2022-10-06T20:31:45.754Z,39.95
2022-10-06T20:36:51.878Z,40.01
2022-10-06T20:41:57.545Z,39.89
2022-10-06T20:46:59.844Z,39.99
2022-10-06T20:52:03.438Z,39.76
2022-10-06T20:57:07.079Z,39.64
2022-10-06T21:02:11.057Z,40.19
2022-10-06T21:07:13.263Z,39.71
2022-10-06T21:12:16.643Z,38.86
2022-10-06T21:17:19.320Z,39.23
2022-10-06T21:22:21.598Z,39.25
2022-10-06T21:27:23.833Z,39.46
2022-10-06T21:32:26.197Z,39.92
2022-10-06T21:37:28.440Z,39.90
2022-10-06T21:42:30.624Z,40.14
2022-10-06T21:47:32.932Z,40.30
2022-10-06T21:52:35.170Z,40.51
2022-10-06T21:57:37.349Z,40.83
2022-10-06T22:02:39.696Z,41.02
2022-10-06T22:07:42.419Z,41.22
2022-10-06T22:12:44.862Z,41.36
2022-10-06T22:17:47.370Z,41.60
2022-10-06T22:22:51.861Z,41.68
2022-10-06T22:27:54.110Z,41.58
2022-10-06T22:32:56.483Z,41.79
2022-10-06T22:37:58.992Z,42.07
2022-10-06T22:43:01.341Z,42.22
2022-10-06T22:48:03.579Z,42.29
2022-10-06T22:53:06.111Z,42.36
2022-10-06T22:58:08.519Z,42.73
2022-10-06T23:03:11.852Z,43.05
2022-10-06T23:08:14.344Z,42.98
2022-10-06T23:13:17.136Z,43.14
2022-10-06T23:18:19.483Z,43.63
2022-10-06T23:23:21.936Z,44.05
2022-10-06T23:28:24.319Z,44.09
2022-10-06T23:33:26.757Z,44.38
2022-10-06T23:38:29.276Z,44.57
2022-10-06T23:43:31.648Z,44.41
2022-10-06T23:48:33.920Z,44.72
2022-10-06T23:53:37.119Z,44.96
2022-10-06T23:58:39.416Z,44.86
